Time;durP1;ratioP1;P1;durP2;ratioP2;P2;SDS_P1;SDS_P2;PMS_P1;PMS_P2;Temp;Humidity;BMP_temperature;BMP_pressure;BME280_temperature;BME280_humidity;BME280_pressure;Samples;Min_cycle;Max_cycle;Signal;HPM_P1;HPM_P2
2021/09/13 00:00:08;;;;;;;2.80;2.53;;;;;;;;;;5075667;28;20632;-46
2021/09/13 00:02:34;;;;;;;3.15;2.50;;;;;;;;;;5092124;28;20202;-46
2021/09/13 00:05:00;;;;;;;2.75;2.22;;;;;;;;;;5095645;28;20178;-46
2021/09/13 00:07:26;;;;;;;4.32;2.90;;;;;;;;;;5095243;28;20162;-45
2021/09/13 00:09:52;;;;;;;3.40;2.15;;;;;;;;;;5095270;28;20549;-46
2021/09/13 00:12:18;;;;;;;2.63;2.42;;;;;;;;;;5076498;28;20492;-46
2021/09/13 00:14:44;;;;;;;6.57;2.70;;;;;;;;;;5089496;28;20189;-46
2021/09/13 00:17:10;;;;;;;3.22;2.90;;;;;;;;;;5094573;28;20189;-46
2021/09/13 00:19:37;;;;;;;2.65;2.45;;;;;;;;;;5094836;28;20704;-46
2021/09/13 00:22:03;;;;;;;3.60;2.30;;;;;;;;;;5094520;28;20182;-46
2021/09/13 00:24:29;;;;;;;2.95;2.65;;;;;;;;;;5095233;28;20177;-46
2021/09/13 00:26:55;;;;;;;3.50;2.50;;;;;;;;;;5094277;28;20177;-46
2021/09/13 00:29:21;;;;;;;2.75;2.40;;;;;;;;;;5094958;28;20185;-46
2021/09/13 00:31:47;;;;;;;3.42;2.80;;;;;;;;;;5080595;28;20667;-46
2021/09/13 00:34:14;;;;;;;3.58;2.72;;;;;;;;;;5074868;28;20185;-46
2021/09/13 00:36:40;;;;;;;3.13;2.60;;;;;;;;;;5092354;28;20173;-46
2021/09/13 00:39:07;;;;;;;3.35;2.40;;;;;;;;;;5093786;28;20189;-46
2021/09/13 00:41:34;;;;;;;3.50;2.72;;;;;;;;;;5088771;28;20189;-46
2021/09/13 00:44:00;;;;;;;3.83;2.40;;;;;;;;;;5094293;28;20193;-46
2021/09/13 00:46:26;;;;;;;2.70;2.50;;;;;;;;;;5078733;28;20182;-46
2021/09/13 00:48:52;;;;;;;2.88;2.53;;;;;;;;;;5088944;28;20188;-46
2021/09/13 00:51:18;;;;;;;4.90;2.67;;;;;;;;;;5085360;28;20641;-46
2021/09/13 00:53:44;;;;;;;3.00;2.60;;;;;;;;;;5074727;28;20170;-46
2021/09/13 00:56:10;;;;;;;3.85;2.40;;;;;;;;;;5087747;28;20180;-46
2021/09/13 00:58:37;;;;;;;3.20;2.90;;;;;;;;;;5094286;28;20481;-46
2021/09/13 01:01:03;;;;;;;2.67;2.47;;;;;;;;;;5087343;28;20214;-46
2021/09/13 01:03:30;;;;;;;3.92;2.50;;;;;;;;;;5088706;28;20167;-45
2021/09/13 01:05:56;;;;;;;4.22;2.85;;;;;;;;;;5074376;28;20158;-46
2021/09/13 01:08:22;;;;;;;7.63;2.67;;;;;;;;;;5075226;28;20664;-46
2021/09/13 01:10:49;;;;;;;2.10;2.00;;;;;;;;;;5078805;28;20185;-46
2021/09/13 01:13:15;;;;;;;2.60;2.40;;;;;;;;;;5094015;28;20181;-46
2021/09/13 01:15:42;;;;;;;3.25;2.50;;;;;;;;;;5091394;28;20268;-46
2021/09/13 01:18:08;;;;;;;2.85;2.47;;;;;;;;;;5079537;28;20189;-45
2021/09/13 01:20:34;;;;;;;2.95;2.67;;;;;;;;;;5087540;28;20458;-46
2021/09/13 01:23:07;;;;;;;2.53;2.33;;;;;;;;;;5097268;28;20245;-46
2021/09/13 01:25:35;;;;;;;2.40;2.20;;;;;;;;;;5089885;28;20266;-46
2021/09/13 01:28:01;;;;;;;2.55;2.35;;;;;;;;;;5092852;28;20193;-46
2021/09/13 01:30:27;;;;;;;3.10;2.70;;;;;;;;;;5078458;28;20201;-45
2021/09/13 01:32:53;;;;;;;2.38;2.17;;;;;;;;;;5078350;28;20181;-46
2021/09/13 01:35:19;;;;;;;3.50;2.70;;;;;;;;;;5094178;28;20170;-46
2021/09/13 01:37:45;;;;;;;2.95;2.50;;;;;;;;;;5096975;28;20308;-46
2021/09/13 01:40:11;;;;;;;2.83;2.40;;;;;;;;;;5092093;28;20198;-46
2021/09/13 01:42:37;;;;;;;2.80;2.33;;;;;;;;;;5098057;28;20773;-45
2021/09/13 01:45:03;;;;;;;3.10;2.90;;;;;;;;;;5093879;28;20170;-46
2021/09/13 01:47:30;;;;;;;2.60;2.40;;;;;;;;;;5077434;28;20623;-45
2021/09/13 01:49:56;;;;;;;2.50;2.30;;;;;;;;;;5097647;28;20242;-46
2021/09/13 01:52:22;;;;;;;3.45;2.40;;;;;;;;;;5098080;28;20219;-46
2021/09/13 01:54:48;;;;;;;2.42;2.22;;;;;;;;;;5094908;28;20501;-46
2021/09/13 01:57:14;;;;;;;3.22;2.65;;;;;;;;;;5097301;28;20178;-46
2021/09/13 01:59:40;;;;;;;4.57;2.65;;;;;;;;;;5095906;28;20202;-46
2021/09/13 02:02:06;;;;;;;2.72;2.53;;;;;;;;;;5097480;28;20224;-45
2021/09/13 02:04:32;;;;;;;4.20;2.70;;;;;;;;;;5097724;28;20189;-46
2021/09/13 02:06:58;;;;;;;4.25;2.55;;;;;;;;;;5096565;28;20182;-46
2021/09/13 02:09:24;;;;;;;2.83;2.63;;;;;;;;;;5097461;28;20178;-46
2021/09/13 02:11:50;;;;;;;4.28;2.40;;;;;;;;;;5097212;28;20431;-45
2021/09/13 02:14:16;;;;;;;3.78;2.58;;;;;;;;;;5087128;28;20183;-46
2021/09/13 02:16:42;;;;;;;3.45;2.40;;;;;;;;;;5078619;28;20249;-45
2021/09/13 02:19:08;;;;;;;2.45;2.25;;;;;;;;;;5095092;28;20174;-46
2021/09/13 02:21:33;;;;;;;2.40;2.20;;;;;;;;;;5096592;28;20205;-46
2021/09/13 02:23:59;;;;;;;3.00;2.40;;;;;;;;;;5097672;28;20249;-46
2021/09/13 02:26:25;;;;;;;3.90;2.53;;;;;;;;;;5076534;28;20184;-46
2021/09/13 02:28:51;;;;;;;2.20;2.10;;;;;;;;;;5076622;28;20592;-46
2021/09/13 02:31:17;;;;;;;6.10;2.30;;;;;;;;;;5077307;28;20264;-46
2021/09/13 02:33:43;;;;;;;3.70;2.55;;;;;;;;;;5088351;28;20205;-45
2021/09/13 02:36:09;;;;;;;2.78;2.15;;;;;;;;;;5096382;28;20178;-45
2021/09/13 02:38:35;;;;;;;2.50;2.30;;;;;;;;;;5096260;28;20190;-46
2021/09/13 02:41:01;;;;;;;2.85;2.65;;;;;;;;;;5084145;28;20306;-45
2021/09/13 02:43:27;;;;;;;3.22;2.13;;;;;;;;;;5076963;28;20194;-46
2021/09/13 02:45:53;;;;;;;2.60;2.15;;;;;;;;;;5076928;28;20589;-46
2021/09/13 02:48:19;;;;;;;3.88;2.20;;;;;;;;;;5088549;28;20178;-46
2021/09/13 02:50:45;;;;;;;2.80;2.60;;;;;;;;;;5095586;28;20206;-46
2021/09/13 02:53:11;;;;;;;3.83;2.35;;;;;;;;;;5096769;28;20197;-46
2021/09/13 02:55:37;;;;;;;2.28;2.15;;;;;;;;;;5096224;28;20670;-46
2021/09/13 02:58:03;;;;;;;2.45;2.10;;;;;;;;;;5096543;28;20253;-46
2021/09/13 03:00:29;;;;;;;4.00;2.63;;;;;;;;;;5096415;28;20185;-46
2021/09/13 03:02:55;;;;;;;3.35;2.35;;;;;;;;;;5096610;28;20185;-46
2021/09/13 03:05:21;;;;;;;2.08;1.92;;;;;;;;;;5094121;28;20478;-46
2021/09/13 03:07:47;;;;;;;4.30;2.15;;;;;;;;;;5096343;28;20158;-46
2021/09/13 03:10:13;;;;;;;3.72;2.00;;;;;;;;;;5096207;28;20261;-46
2021/09/13 03:12:39;;;;;;;2.33;2.13;;;;;;;;;;5096394;28;20265;-46
2021/09/13 03:15:06;;;;;;;4.47;2.42;;;;;;;;;;5093981;28;20190;-46
2021/09/13 03:17:32;;;;;;;2.55;2.35;;;;;;;;;;5077241;28;20210;-46
2021/09/13 03:19:59;;;;;;;2.65;2.20;;;;;;;;;;5077161;28;20205;-46
2021/09/13 03:22:25;;;;;;;3.95;2.17;;;;;;;;;;5077740;28;20182;-46
2021/09/13 03:24:51;;;;;;;2.70;2.10;;;;;;;;;;5096310;28;20174;-46
2021/09/13 03:27:17;;;;;;;3.15;2.17;;;;;;;;;;5095921;28;20403;-46
2021/09/13 03:29:43;;;;;;;3.22;2.20;;;;;;;;;;5096094;28;20185;-46
2021/09/13 03:32:09;;;;;;;3.05;2.63;;;;;;;;;;5095152;28;20665;-45
2021/09/13 03:34:35;;;;;;;2.78;2.28;;;;;;;;;;5095978;28;20181;-46
2021/09/13 03:37:02;;;;;;;2.58;2.38;;;;;;;;;;5095542;28;20197;-46
2021/09/13 03:39:29;;;;;;;2.40;2.20;;;;;;;;;;5095626;28;20687;-46
2021/09/13 03:41:55;;;;;;;3.13;2.38;;;;;;;;;;5075868;28;20171;-46
2021/09/13 03:44:21;;;;;;;2.47;2.03;;;;;;;;;;5089663;28;20188;-46
2021/09/13 03:46:47;;;;;;;2.30;2.10;;;;;;;;;;5080791;28;20456;-46
2021/09/13 03:49:13;;;;;;;2.50;2.30;;;;;;;;;;5095482;28;20166;-46
2021/09/13 03:51:39;;;;;;;2.40;2.20;;;;;;;;;;5083843;28;20248;-46
2021/09/13 03:54:05;;;;;;;4.03;2.20;;;;;;;;;;5076826;28;20248;-46
2021/09/13 03:56:31;;;;;;;2.58;2.38;;;;;;;;;;5078564;28;20589;-46
2021/09/13 03:58:57;;;;;;;3.40;2.35;;;;;;;;;;5090761;28;20252;-46
2021/09/13 04:01:23;;;;;;;4.82;2.30;;;;;;;;;;5095471;28;20232;-46
2021/09/13 04:03:50;;;;;;;2.40;2.20;;;;;;;;;;5095682;28;20162;-46
2021/09/13 04:06:25;;;;;;;3.03;2.50;;;;;;;;;;5095133;28;20265;-45
2021/09/13 04:11:37;;;;;;;4.30;2.30;;;;;;;;;;5095351;28;20173;-46
2021/09/13 04:14:03;;;;;;;2.25;2.05;;;;;;;;;;5094924;28;20177;-46
2021/09/13 04:16:29;;;;;;;2.10;1.90;;;;;;;;;;5089818;28;20559;-46
2021/09/13 04:18:55;;;;;;;2.60;2.35;;;;;;;;;;5093847;28;20182;-46
2021/09/13 04:21:21;;;;;;;2.53;2.10;;;;;;;;;;5093741;28;20248;-46
2021/09/13 04:23:47;;;;;;;7.07;2.58;;;;;;;;;;5095132;28;20229;-46
2021/09/13 04:26:13;;;;;;;9.30;3.50;;;;;;;;;;5094826;28;20180;-46
2021/09/13 04:28:39;;;;;;;7.95;3.53;;;;;;;;;;5094414;28;20162;-46
2021/09/13 04:31:05;;;;;;;6.45;2.90;;;;;;;;;;5081543;28;20209;-46
2021/09/13 04:33:31;;;;;;;4.90;3.03;;;;;;;;;;5075190;28;20240;-46
2021/09/13 04:35:57;;;;;;;7.28;2.80;;;;;;;;;;5074929;28;20557;-46
2021/09/13 04:38:23;;;;;;;3.08;2.35;;;;;;;;;;5087403;28;20273;-46
2021/09/13 04:40:49;;;;;;;4.13;2.63;;;;;;;;;;5083227;28;20202;-46
2021/09/13 04:43:15;;;;;;;5.32;2.50;;;;;;;;;;5074486;28;20196;-46
2021/09/13 04:45:41;;;;;;;6.43;2.47;;;;;;;;;;5074792;28;20204;-45
2021/09/13 04:48:07;;;;;;;5.47;2.75;;;;;;;;;;5086725;28;20182;-46
2021/09/13 04:50:33;;;;;;;2.75;2.15;;;;;;;;;;5074787;28;20174;-46
2021/09/13 04:52:59;;;;;;;5.18;2.88;;;;;;;;;;5078481;28;20190;-46
2021/09/13 04:55:25;;;;;;;4.15;2.60;;;;;;;;;;5082562;28;20178;-46
2021/09/13 04:57:51;;;;;;;3.58;2.53;;;;;;;;;;5072438;28;20172;-46
2021/09/13 05:00:17;;;;;;;6.10;2.47;;;;;;;;;;5080301;28;20205;-46
2021/09/13 05:02:43;;;;;;;3.85;2.42;;;;;;;;;;5093039;28;20652;-46
2021/09/13 05:05:09;;;;;;;3.88;2.15;;;;;;;;;;5090079;28;20166;-46
2021/09/13 05:07:35;;;;;;;3.85;2.22;;;;;;;;;;5083267;28;20201;-46
2021/09/13 05:10:02;;;;;;;3.45;2.50;;;;;;;;;;5093515;28;20532;-45
2021/09/13 05:12:28;;;;;;;5.22;2.47;;;;;;;;;;5094502;28;20490;-46
2021/09/13 05:14:54;;;;;;;3.30;2.20;;;;;;;;;;5089012;28;20178;-46
2021/09/13 05:17:20;;;;;;;5.47;2.80;;;;;;;;;;5090295;28;20508;-45
2021/09/13 05:19:46;;;;;;;3.15;2.55;;;;;;;;;;5094151;28;20224;-46
2021/09/13 05:22:12;;;;;;;6.88;2.40;;;;;;;;;;5094314;28;20196;-46
2021/09/13 05:24:38;;;;;;;3.90;2.35;;;;;;;;;;5093668;28;20173;-45
2021/09/13 05:27:04;;;;;;;3.47;2.40;;;;;;;;;;5093963;28;20605;-46
2021/09/13 05:29:30;;;;;;;2.50;2.10;;;;;;;;;;5093949;28;20257;-46
2021/09/13 05:31:56;;;;;;;2.30;2.13;;;;;;;;;;5074197;28;20285;-46
2021/09/13 05:34:22;;;;;;;3.95;2.30;;;;;;;;;;5074403;28;20170;-46
2021/09/13 05:36:48;;;;;;;3.45;2.15;;;;;;;;;;5091633;28;20185;-46
2021/09/13 05:39:14;;;;;;;2.33;2.10;;;;;;;;;;5093011;28;20189;-46
2021/09/13 05:41:40;;;;;;;5.30;2.40;;;;;;;;;;5094108;28;20205;-46
2021/09/13 05:44:06;;;;;;;2.35;2.15;;;;;;;;;;5093625;28;20212;-46
2021/09/13 05:46:32;;;;;;;2.40;2.10;;;;;;;;;;5093946;28;20189;-46
2021/09/13 05:48:58;;;;;;;2.40;2.08;;;;;;;;;;5093686;28;20170;-46
2021/09/13 05:51:24;;;;;;;3.53;2.17;;;;;;;;;;5093427;28;20431;-46
2021/09/13 05:53:51;;;;;;;3.70;2.05;;;;;;;;;;5093108;28;20244;-46
2021/09/13 05:56:17;;;;;;;1.92;1.77;;;;;;;;;;5093568;28;20230;-46
2021/09/13 05:58:43;;;;;;;3.50;2.38;;;;;;;;;;5094046;28;20181;-46
2021/09/13 06:01:09;;;;;;;4.45;2.22;;;;;;;;;;5093876;28;20193;-46
2021/09/13 06:03:35;;;;;;;3.47;2.10;;;;;;;;;;5088972;28;20243;-46
2021/09/13 06:06:01;;;;;;;3.30;2.28;;;;;;;;;;5073853;28;20245;-46
2021/09/13 06:08:27;;;;;;;2.88;2.28;;;;;;;;;;5074848;28;20163;-46
2021/09/13 06:10:53;;;;;;;2.92;1.75;;;;;;;;;;5080524;28;20567;-46
2021/09/13 06:13:19;;;;;;;2.45;2.25;;;;;;;;;;5093603;28;20182;-45
2021/09/13 06:15:45;;;;;;;2.38;1.90;;;;;;;;;;5086143;28;20174;-46
2021/09/13 06:18:14;;;;;;;2.17;1.92;;;;;;;;;;5093239;28;20227;-46
2021/09/13 06:20:40;;;;;;;2.67;2.05;;;;;;;;;;5087396;28;20190;-45
2021/09/13 06:23:06;;;;;;;2.33;2.00;;;;;;;;;;5077072;28;20510;-46
2021/09/13 06:25:32;;;;;;;2.20;2.00;;;;;;;;;;5077380;28;20171;-47
2021/09/13 06:27:58;;;;;;;2.50;1.80;;;;;;;;;;5076826;28;20194;-46
2021/09/13 06:30:24;;;;;;;2.42;2.10;;;;;;;;;;5096829;28;20285;-46
2021/09/13 06:32:50;;;;;;;3.20;2.28;;;;;;;;;;5097505;28;20177;-46
2021/09/13 06:35:16;;;;;;;2.40;2.10;;;;;;;;;;5097323;28;20178;-46
2021/09/13 06:37:42;;;;;;;2.15;1.92;;;;;;;;;;5096426;28;20556;-46
2021/09/13 06:40:08;;;;;;;3.67;2.38;;;;;;;;;;5096641;28;20198;-46
2021/09/13 06:42:34;;;;;;;4.47;2.88;;;;;;;;;;5097307;28;20184;-46
2021/09/13 06:45:08;;;;;;;4.18;2.80;;;;;;;;;;5093024;28;20174;-46
2021/09/13 06:47:44;;;;;;;4.75;2.58;;;;;;;;;;5076563;28;20194;-46
2021/09/13 06:50:10;;;;;;;3.83;3.00;;;;;;;;;;5075795;28;20200;-45
2021/09/13 06:52:37;;;;;;;3.05;2.78;;;;;;;;;;5076943;28;20177;-46
2021/09/13 06:55:03;;;;;;;2.60;2.40;;;;;;;;;;5094154;28;20564;-46
2021/09/13 06:57:29;;;;;;;3.20;2.13;;;;;;;;;;5096585;28;20253;-46
2021/09/13 06:59:57;;;;;;;3.65;3.00;;;;;;;;;;5092609;28;20453;-46
2021/09/13 07:02:23;;;;;;;4.60;3.13;;;;;;;;;;5076649;28;20212;-46
2021/09/13 07:04:49;;;;;;;3.05;2.85;;;;;;;;;;5076569;28;20210;-45
2021/09/13 07:07:15;;;;;;;4.22;2.95;;;;;;;;;;5077395;28;20560;-46
2021/09/13 07:09:41;;;;;;;3.05;2.60;;;;;;;;;;5076429;28;20170;-46
2021/09/13 07:12:07;;;;;;;3.10;2.30;;;;;;;;;;5076676;28;20201;-46
2021/09/13 07:14:33;;;;;;;3.55;2.75;;;;;;;;;;5096343;28;20178;-45
2021/09/13 07:17:00;;;;;;;5.00;3.42;;;;;;;;;;5095584;28;20231;-46
2021/09/13 07:19:26;;;;;;;5.65;3.28;;;;;;;;;;5079575;28;20201;-46
2021/09/13 07:21:52;;;;;;;3.60;3.30;;;;;;;;;;5076244;28;20550;-46
2021/09/13 07:24:20;;;;;;;3.70;3.15;;;;;;;;;;5076235;28;20509;-46
2021/09/13 07:26:47;;;;;;;3.10;2.67;;;;;;;;;;5082097;28;20177;-46
2021/09/13 07:29:14;;;;;;;3.90;3.58;;;;;;;;;;5095259;28;20562;-46
2021/09/13 07:31:40;;;;;;;4.63;4.15;;;;;;;;;;5096366;28;20178;-46
2021/09/13 07:34:06;;;;;;;4.13;3.35;;;;;;;;;;5096212;28;20545;-46
2021/09/13 07:36:32;;;;;;;3.50;3.10;;;;;;;;;;5079431;28;20224;-45
2021/09/13 07:38:59;;;;;;;4.15;3.75;;;;;;;;;;5093387;28;20533;-46
2021/09/13 07:41:25;;;;;;;4.80;4.10;;;;;;;;;;5091418;28;20316;-46
2021/09/13 07:43:51;;;;;;;4.05;3.65;;;;;;;;;;5095550;28;20571;-46
2021/09/13 07:46:17;;;;;;;4.95;4.00;;;;;;;;;;5095982;28;20261;-45
2021/09/13 07:48:43;;;;;;;5.25;4.60;;;;;;;;;;5095399;28;20241;-46
2021/09/13 07:51:09;;;;;;;4.70;4.20;;;;;;;;;;5093691;28;20200;-46
2021/09/13 07:53:35;;;;;;;4.75;4.18;;;;;;;;;;5082911;28;20621;-46
2021/09/13 07:56:01;;;;;;;4.47;4.07;;;;;;;;;;5094818;28;20696;-46
2021/09/13 07:58:27;;;;;;;4.38;3.97;;;;;;;;;;5077454;28;20210;-45
2021/09/13 08:00:53;;;;;;;5.25;4.60;;;;;;;;;;5089986;28;20510;-46
2021/09/13 08:03:19;;;;;;;4.07;3.20;;;;;;;;;;5094035;28;20224;-46
2021/09/13 08:05:45;;;;;;;4.13;3.83;;;;;;;;;;5093992;28;20185;-46
2021/09/13 08:08:12;;;;;;;4.50;4.03;;;;;;;;;;5089681;28;20177;-45
2021/09/13 08:10:39;;;;;;;5.07;4.57;;;;;;;;;;5086907;28;20242;-45
2021/09/13 08:13:05;;;;;;;4.25;3.85;;;;;;;;;;5083489;28;20173;-46
2021/09/13 08:15:31;;;;;;;3.95;3.13;;;;;;;;;;5090226;28;20175;-46
2021/09/13 08:17:57;;;;;;;3.30;3.00;;;;;;;;;;5088096;28;20188;-46
2021/09/13 08:20:23;;;;;;;3.00;2.80;;;;;;;;;;5080232;28;20202;-46
2021/09/13 08:22:49;;;;;;;3.70;3.40;;;;;;;;;;5074296;28;20250;-46
2021/09/13 08:25:15;;;;;;;3.38;2.72;;;;;;;;;;5078558;28;20260;-46
2021/09/13 08:27:41;;;;;;;3.38;3.08;;;;;;;;;;5072164;28;20584;-46
2021/09/13 08:30:07;;;;;;;5.95;2.95;;;;;;;;;;5077952;28;20282;-46
2021/09/13 08:32:33;;;;;;;3.75;2.90;;;;;;;;;;5084642;28;20675;-46
2021/09/13 08:34:59;;;;;;;3.47;3.17;;;;;;;;;;5082319;28;20556;-46
2021/09/13 08:37:25;;;;;;;4.03;3.10;;;;;;;;;;5087394;28;20193;-46
2021/09/13 08:39:51;;;;;;;3.95;3.30;;;;;;;;;;5091071;28;20568;-46
2021/09/13 08:42:17;;;;;;;2.90;2.67;;;;;;;;;;5075921;28;20183;-46
2021/09/13 08:44:47;;;;;;;3.20;2.90;;;;;;;;;;5088697;28;20538;-47
2021/09/13 08:47:29;;;;;;;5.22;3.70;;;;;;;;;;5092885;28;20201;-46
2021/09/13 08:50:03;;;;;;;3.78;3.28;;;;;;;;;;5093668;28;20177;-46
2021/09/13 08:52:29;;;;;;;5.60;3.88;;;;;;;;;;5094770;28;20193;-46
2021/09/13 08:54:55;;;;;;;3.42;3.13;;;;;;;;;;5079452;28;20581;-46
2021/09/13 08:57:22;;;;;;;5.47;4.05;;;;;;;;;;5092138;28;20174;-46
2021/09/13 08:59:48;;;;;;;5.57;4.25;;;;;;;;;;5094389;28;20200;-46
2021/09/13 09:02:15;;;;;;;4.63;3.92;;;;;;;;;;5082471;28;20450;-46
2021/09/13 09:04:44;;;;;;;5.00;4.50;;;;;;;;;;5092620;28;20810;-46
2021/09/13 09:07:12;;;;;;;3.85;3.45;;;;;;;;;;5094296;28;20170;-46
2021/09/13 09:09:38;;;;;;;3.70;3.40;;;;;;;;;;5093010;28;20200;-46
2021/09/13 09:12:13;;;;;;;3.90;3.10;;;;;;;;;;5091583;28;20804;-46
2021/09/13 09:14:44;;;;;;;3.97;3.58;;;;;;;;;;5082284;28;20253;-46
2021/09/13 09:17:15;;;;;;;3.83;3.53;;;;;;;;;;5078811;28;20228;-46
2021/09/13 09:19:43;;;;;;;3.97;3.58;;;;;;;;;;5087773;28;20178;-46
2021/09/13 09:22:20;;;;;;;4.15;3.75;;;;;;;;;;5091924;28;20455;-46
2021/09/13 09:24:46;;;;;;;4.78;4.35;;;;;;;;;;5093679;28;20269;-46
2021/09/13 09:27:12;;;;;;;4.05;3.65;;;;;;;;;;5093313;28;20182;-46
2021/09/13 09:29:38;;;;;;;4.43;4.03;;;;;;;;;;5093551;28;20235;-46
2021/09/13 09:32:05;;;;;;;4.70;4.10;;;;;;;;;;5094440;28;20176;-46
2021/09/13 09:34:34;;;;;;;4.65;4.25;;;;;;;;;;5092226;28;20272;-46
2021/09/13 09:37:01;;;;;;;4.43;4.00;;;;;;;;;;5075299;28;20167;-46
2021/09/13 09:39:30;;;;;;;4.10;3.70;;;;;;;;;;5093834;28;20173;-46
2021/09/13 09:41:57;;;;;;;4.80;4.38;;;;;;;;;;5094341;28;20182;-46
2021/09/13 09:44:23;;;;;;;4.07;3.75;;;;;;;;;;5097857;28;20184;-46
2021/09/13 09:46:51;;;;;;;4.43;4.03;;;;;;;;;;5097877;28;20185;-46
2021/09/13 09:49:20;;;;;;;5.75;5.15;;;;;;;;;;5093663;28;20174;-46
2021/09/13 09:51:52;;;;;;;5.18;4.40;;;;;;;;;;5086713;28;20461;-46
2021/09/13 09:54:22;;;;;;;6.10;5.32;;;;;;;;;;5098024;28;20241;-46
2021/09/13 09:56:56;;;;;;;5.25;4.75;;;;;;;;;;5097925;28;20174;-46
2021/09/13 09:59:22;;;;;;;4.50;4.10;;;;;;;;;;5098113;28;20256;-46
2021/09/13 10:01:50;;;;;;;4.22;3.65;;;;;;;;;;5079630;28;20292;-46
2021/09/13 10:04:16;;;;;;;4.82;3.08;;;;;;;;;;5098224;28;20154;-46
2021/09/13 10:06:42;;;;;;;4.22;3.65;;;;;;;;;;5079112;28;20185;-46
2021/09/13 10:09:09;;;;;;;4.03;3.53;;;;;;;;;;5095417;28;20220;-46
2021/09/13 10:11:39;;;;;;;4.22;3.78;;;;;;;;;;5079841;28;20187;-46
2021/09/13 10:14:05;;;;;;;4.80;3.45;;;;;;;;;;5086547;28;20173;-46
2021/09/13 10:16:32;;;;;;;4.63;4.15;;;;;;;;;;5097519;28;20576;-46
2021/09/13 10:18:58;;;;;;;4.65;4.25;;;;;;;;;;5096900;28;20186;-46
2021/09/13 10:21:24;;;;;;;5.90;4.15;;;;;;;;;;5081532;28;20206;-46
2021/09/13 10:23:51;;;;;;;4.22;3.92;;;;;;;;;;5083799;28;20298;-46
2021/09/13 10:26:18;;;;;;;3.75;3.38;;;;;;;;;;5082362;28;20197;-46
2021/09/13 10:29:02;;;;;;;3.67;3.35;;;;;;;;;;5076704;28;20174;-46
2021/09/13 10:31:45;;;;;;;3.78;3.30;;;;;;;;;;5077270;28;20285;-46
2021/09/13 10:34:18;;;;;;;4.93;4.43;;;;;;;;;;5077544;28;20205;-46
2021/09/13 10:37:03;;;;;;;4.63;4.15;;;;;;;;;;5077246;28;20221;-46
2021/09/13 10:39:48;;;;;;;5.25;3.67;;;;;;;;;;5089609;28;20264;-46
2021/09/13 10:42:27;;;;;;;6.55;3.67;;;;;;;;;;5092698;28;20185;-46
2021/09/13 10:45:05;;;;;;;3.70;3.30;;;;;;;;;;5097292;28;20178;-46
2021/09/13 10:47:32;;;;;;;3.60;3.30;;;;;;;;;;5076509;28;20682;-46
2021/09/13 10:50:16;;;;;;;3.92;3.58;;;;;;;;;;5076745;28;20174;-46
2021/09/13 10:52:43;;;;;;;4.95;3.15;;;;;;;;;;5077070;28;20211;-46
2021/09/13 10:55:09;;;;;;;4.97;3.83;;;;;;;;;;5080857;28;20166;-46
2021/09/13 10:57:53;;;;;;;3.78;3.47;;;;;;;;;;5096272;28;20177;-46
2021/09/13 11:00:38;;;;;;;5.60;3.80;;;;;;;;;;5096159;28;20239;-46
2021/09/13 11:03:32;;;;;;;5.20;3.45;;;;;;;;;;5096736;28;20162;-46
2021/09/13 11:05:58;;;;;;;3.50;3.20;;;;;;;;;;5096826;28;20211;-46
2021/09/13 11:08:25;;;;;;;3.70;2.97;;;;;;;;;;5096046;28;20169;-46
2021/09/13 11:10:51;;;;;;;3.65;2.92;;;;;;;;;;5096431;28;20197;-46
2021/09/13 11:13:17;;;;;;;3.28;3.00;;;;;;;;;;5095789;28;20181;-46
2021/09/13 11:15:53;;;;;;;4.70;3.72;;;;;;;;;;5093056;28;20197;-46
2021/09/13 11:18:35;;;;;;;3.65;3.35;;;;;;;;;;5075812;28;20227;-46
2021/09/13 11:21:14;;;;;;;3.25;3.03;;;;;;;;;;5076181;28;20220;-46
2021/09/13 11:23:40;;;;;;;4.07;3.13;;;;;;;;;;5076407;28;20158;-46
2021/09/13 11:26:06;;;;;;;4.13;2.85;;;;;;;;;;5076194;28;20241;-46
2021/09/13 11:28:32;;;;;;;3.05;2.50;;;;;;;;;;5075812;28;20198;-46
2021/09/13 11:30:58;;;;;;;3.05;2.80;;;;;;;;;;5090411;28;20227;-46
2021/09/13 11:33:24;;;;;;;2.80;2.60;;;;;;;;;;5096084;28;20170;-46
2021/09/13 11:35:56;;;;;;;3.30;3.00;;;;;;;;;;5096123;28;20564;-46
2021/09/13 11:38:22;;;;;;;3.20;2.90;;;;;;;;;;5095385;28;20587;-46
2021/09/13 11:40:48;;;;;;;3.00;2.70;;;;;;;;;;5095480;28;20288;-46
2021/09/13 11:43:14;;;;;;;3.10;2.88;;;;;;;;;;5095491;28;20255;-46
2021/09/13 11:45:40;;;;;;;3.63;3.20;;;;;;;;;;5076927;28;20209;-46
2021/09/13 11:48:06;;;;;;;3.47;3.17;;;;;;;;;;5091571;28;20178;-46
2021/09/13 11:50:34;;;;;;;3.40;3.10;;;;;;;;;;5095990;28;20199;-46
2021/09/13 11:53:10;;;;;;;3.15;2.85;;;;;;;;;;5096136;28;20227;-46
2021/09/13 11:55:37;;;;;;;3.28;3.03;;;;;;;;;;5084348;28;20456;-46
2021/09/13 11:58:06;;;;;;;3.60;3.30;;;;;;;;;;5095313;28;20547;-46
2021/09/13 12:00:35;;;;;;;3.60;3.22;;;;;;;;;;5094923;28;20185;-46
2021/09/13 12:03:06;;;;;;;3.90;3.60;;;;;;;;;;5095658;28;20220;-46
2021/09/13 12:05:33;;;;;;;5.53;3.08;;;;;;;;;;5091267;28;20309;-46
2021/09/13 12:08:01;;;;;;;4.57;3.70;;;;;;;;;;5074916;28;20296;-46
2021/09/13 12:10:32;;;;;;;3.75;3.40;;;;;;;;;;5076606;28;20179;-46
2021/09/13 12:13:01;;;;;;;3.25;3.03;;;;;;;;;;5075445;28;20251;-47
2021/09/13 12:15:30;;;;;;;3.65;3.20;;;;;;;;;;5075042;28;20550;-46
2021/09/13 12:17:56;;;;;;;3.40;3.10;;;;;;;;;;5074751;28;20220;-46
2021/09/13 12:20:29;;;;;;;3.10;2.90;;;;;;;;;;5082279;28;20202;-46
2021/09/13 12:22:57;;;;;;;3.50;3.20;;;;;;;;;;5095461;28;20184;-46
2021/09/13 12:25:23;;;;;;;3.53;3.20;;;;;;;;;;5095109;28;20166;-46
2021/09/13 12:27:50;;;;;;;4.18;3.03;;;;;;;;;;5087128;28;20174;-46
2021/09/13 12:30:21;;;;;;;3.35;3.05;;;;;;;;;;5074948;28;20237;-46
2021/09/13 12:32:52;;;;;;;3.67;3.35;;;;;;;;;;5086157;28;20178;-46
2021/09/13 12:35:29;;;;;;;3.70;3.40;;;;;;;;;;5085640;28;20273;-46
2021/09/13 12:37:55;;;;;;;3.55;3.25;;;;;;;;;;5092298;28;20227;-46
2021/09/13 12:40:21;;;;;;;3.72;3.42;;;;;;;;;;5090766;28;20601;-46
2021/09/13 12:42:51;;;;;;;4.35;3.30;;;;;;;;;;5074847;28;20197;-46
2021/09/13 12:45:17;;;;;;;3.90;3.50;;;;;;;;;;5084916;28;20169;-46
2021/09/13 12:47:54;;;;;;;3.78;3.10;;;;;;;;;;5090502;28;20181;-46
2021/09/13 12:50:27;;;;;;;3.42;3.08;;;;;;;;;;5089230;28;20178;-46
2021/09/13 12:52:53;;;;;;;3.40;3.08;;;;;;;;;;5091104;28;20197;-46
2021/09/13 12:55:23;;;;;;;3.83;3.05;;;;;;;;;;5092693;28;20453;-46
2021/09/13 12:57:49;;;;;;;3.25;3.03;;;;;;;;;;5093202;28;20196;-46
2021/09/13 13:00:17;;;;;;;3.20;2.88;;;;;;;;;;5081001;28;20201;-46
2021/09/13 13:02:46;;;;;;;3.00;2.75;;;;;;;;;;5094003;28;20568;-46
2021/09/13 13:05:33;;;;;;;3.10;2.90;;;;;;;;;;5089008;28;20174;-46
2021/09/13 13:08:02;;;;;;;3.53;3.22;;;;;;;;;;5074032;28;20166;-46
2021/09/13 13:10:29;;;;;;;3.47;3.13;;;;;;;;;;5083086;28;20444;-46
2021/09/13 13:12:55;;;;;;;3.60;3.30;;;;;;;;;;5094684;28;20181;-46
2021/09/13 13:15:21;;;;;;;4.60;3.25;;;;;;;;;;5081996;28;20178;-46
2021/09/13 13:17:48;;;;;;;3.08;2.85;;;;;;;;;;5093130;28;20212;-46
2021/09/13 13:20:17;;;;;;;4.07;3.63;;;;;;;;;;5094061;28;20198;-46
2021/09/13 13:22:43;;;;;;;3.55;3.25;;;;;;;;;;5093491;28;20311;-46
2021/09/13 13:25:09;;;;;;;4.10;3.13;;;;;;;;;;5074391;28;20267;-46
2021/09/13 13:27:36;;;;;;;3.13;2.92;;;;;;;;;;5074680;28;20162;-46
2021/09/13 13:30:03;;;;;;;8.30;3.80;;;;;;;;;;5074183;28;20198;-46
2021/09/13 13:32:29;;;;;;;4.32;3.80;;;;;;;;;;5074190;28;20162;-46
2021/09/13 13:34:56;;;;;;;5.47;3.50;;;;;;;;;;5085348;28;20173;-46
2021/09/13 13:37:23;;;;;;;10.75;3.75;;;;;;;;;;5092656;28;20259;-46
2021/09/13 13:39:49;;;;;;;9.73;3.50;;;;;;;;;;5091145;28;20189;-46
2021/09/13 13:42:15;;;;;;;5.57;3.80;;;;;;;;;;5087934;28;20171;-46
2021/09/13 13:44:41;;;;;;;6.03;3.70;;;;;;;;;;5092449;28;20174;-46
2021/09/13 13:47:07;;;;;;;5.40;3.67;;;;;;;;;;5093152;28;20181;-46
2021/09/13 13:49:33;;;;;;;4.90;3.35;;;;;;;;;;5093522;28;20174;-46
2021/09/13 13:51:59;;;;;;;3.47;3.17;;;;;;;;;;5094019;28;20178;-46
2021/09/13 13:54:25;;;;;;;7.20;3.53;;;;;;;;;;5093579;28;20185;-46
2021/09/13 13:56:51;;;;;;;5.90;3.92;;;;;;;;;;5089072;28;20186;-46
2021/09/13 13:59:19;;;;;;;5.07;3.60;;;;;;;;;;5092496;28;20216;-46
2021/09/13 14:01:45;;;;;;;3.60;3.30;;;;;;;;;;5073334;28;20525;-46
2021/09/13 14:04:11;;;;;;;4.32;3.20;;;;;;;;;;5073940;28;20175;-46
2021/09/13 14:06:37;;;;;;;5.50;3.40;;;;;;;;;;5073820;28;20190;-46
2021/09/13 14:09:03;;;;;;;3.25;2.95;;;;;;;;;;5090712;28;20185;-46
2021/09/13 14:11:29;;;;;;;3.88;3.53;;;;;;;;;;5076290;28;20224;-46
2021/09/13 14:13:55;;;;;;;4.13;3.22;;;;;;;;;;5081103;28;20503;-46
2021/09/13 14:16:21;;;;;;;3.88;3.30;;;;;;;;;;5094171;28;20166;-46
2021/09/13 14:18:47;;;;;;;3.97;3.30;;;;;;;;;;5093513;28;20609;-46
2021/09/13 14:21:15;;;;;;;3.60;3.30;;;;;;;;;;5093880;28;20224;-46
2021/09/13 14:23:41;;;;;;;5.22;3.22;;;;;;;;;;5091925;28;20253;-46
2021/09/13 14:26:07;;;;;;;4.45;3.30;;;;;;;;;;5087502;28;20270;-46
2021/09/13 14:28:33;;;;;;;3.70;3.35;;;;;;;;;;5091918;28;20178;-46
2021/09/13 14:30:59;;;;;;;3.63;3.30;;;;;;;;;;5097293;28;20597;-46
2021/09/13 14:33:25;;;;;;;4.05;3.30;;;;;;;;;;5097431;28;20182;-46
2021/09/13 14:35:51;;;;;;;3.47;3.17;;;;;;;;;;5095698;28;20264;-46
2021/09/13 14:38:17;;;;;;;3.75;3.45;;;;;;;;;;5095373;28;20189;-46
2021/09/13 14:40:43;;;;;;;3.78;3.40;;;;;;;;;;5107397;28;20569;-46
2021/09/13 14:43:09;;;;;;;4.22;3.42;;;;;;;;;;5079665;28;20472;-46
2021/09/13 14:45:35;;;;;;;4.00;3.50;;;;;;;;;;5078298;28;20179;-46